sensor_id;sensor_type;location;lat;lon;timestamp;P1;durP1;ratioP1;P2;durP2;ratioP2
59312;SDS011;45084;51.486;7.366;2024-03-06T00:00:01;44.38;;;26.85;;
59312;SDS011;45084;51.486;7.366;2024-03-06T00:02:29;44.25;;;26.27;;
59312;SDS011;45084;51.486;7.366;2024-03-06T00:04:56;38.22;;;25.20;;
59312;SDS011;45084;51.486;7.366;2024-03-06T00:07:24;44.38;;;26.45;;
59312;SDS011;45084;51.486;7.366;2024-03-06T00:09:51;40.70;;;25.05;;
59312;SDS011;45084;51.486;7.366;2024-03-06T00:12:21;40.20;;;24.73;;
59312;SDS011;45084;51.486;7.366;2024-03-06T00:14:49;46.80;;;26.25;;
59312;SDS011;45084;51.486;7.366;2024-03-06T00:17:15;44.90;;;26.40;;
59312;SDS011;45084;51.486;7.366;2024-03-06T00:19:40;47.42;;;28.50;;
59312;SDS011;45084;51.486;7.366;2024-03-06T00:22:07;47.83;;;28.75;;
59312;SDS011;45084;51.486;7.366;2024-03-06T00:24:34;53.75;;;28.85;;
59312;SDS011;45084;51.486;7.366;2024-03-06T00:27:02;50.65;;;28.52;;
59312;SDS011;45084;51.486;7.366;2024-03-06T00:29:31;55.38;;;29.00;;
59312;SDS011;45084;51.486;7.366;2024-03-06T00:31:56;52.22;;;28.90;;
59312;SDS011;45084;51.486;7.366;2024-03-06T00:34:23;49.65;;;28.67;;
59312;SDS011;45084;51.486;7.366;2024-03-06T00:36:52;50.97;;;27.80;;
59312;SDS011;45084;51.486;7.366;2024-03-06T00:39:19;44.05;;;26.75;;
59312;SDS011;45084;51.486;7.366;2024-03-06T00:41:46;45.75;;;27.27;;
59312;SDS011;45084;51.486;7.366;2024-03-06T00:44:11;50.67;;;27.58;;
59312;SDS011;45084;51.486;7.366;2024-03-06T00:46:38;49.22;;;26.75;;
59312;SDS011;45084;51.486;7.366;2024-03-06T00:49:05;42.90;;;24.45;;
59312;SDS011;45084;51.486;7.366;2024-03-06T00:51:32;40.05;;;25.10;;
59312;SDS011;45084;51.486;7.366;2024-03-06T00:54:02;39.55;;;24.63;;
59312;SDS011;45084;51.486;7.366;2024-03-06T00:56:32;38.35;;;23.95;;
59312;SDS011;45084;51.486;7.366;2024-03-06T00:59:00;39.60;;;23.75;;
59312;SDS011;45084;51.486;7.366;2024-03-06T01:01:27;40.55;;;25.10;;
59312;SDS011;45084;51.486;7.366;2024-03-06T01:03:55;38.67;;;24.65;;
59312;SDS011;45084;51.486;7.366;2024-03-06T01:06:21;37.15;;;23.55;;
59312;SDS011;45084;51.486;7.366;2024-03-06T01:08:48;37.08;;;23.10;;
59312;SDS011;45084;51.486;7.366;2024-03-06T01:11:15;36.85;;;23.60;;
59312;SDS011;45084;51.486;7.366;2024-03-06T01:13:41;36.83;;;24.27;;
59312;SDS011;45084;51.486;7.366;2024-03-06T01:16:07;40.00;;;24.60;;
59312;SDS011;45084;51.486;7.366;2024-03-06T01:18:35;36.85;;;22.63;;
59312;SDS011;45084;51.486;7.366;2024-03-06T01:21:02;42.88;;;25.52;;
59312;SDS011;45084;51.486;7.366;2024-03-06T01:23:30;46.17;;;25.50;;
59312;SDS011;45084;51.486;7.366;2024-03-06T01:25:55;43.58;;;25.40;;
59312;SDS011;45084;51.486;7.366;2024-03-06T01:28:22;45.15;;;25.35;;
59312;SDS011;45084;51.486;7.366;2024-03-06T01:30:49;42.10;;;25.63;;
59312;SDS011;45084;51.486;7.366;2024-03-06T01:33:14;47.30;;;26.10;;
59312;SDS011;45084;51.486;7.366;2024-03-06T01:35:40;53.08;;;27.92;;
59312;SDS011;45084;51.486;7.366;2024-03-06T01:38:07;53.88;;;28.52;;
59312;SDS011;45084;51.486;7.366;2024-03-06T01:40:35;57.83;;;29.13;;
59312;SDS011;45084;51.486;7.366;2024-03-06T01:43:02;58.00;;;29.50;;
59312;SDS011;45084;51.486;7.366;2024-03-06T01:45:28;51.97;;;27.65;;
59312;SDS011;45084;51.486;7.366;2024-03-06T01:47:54;49.97;;;27.10;;
59312;SDS011;45084;51.486;7.366;2024-03-06T01:50:21;53.45;;;27.23;;
59312;SDS011;45084;51.486;7.366;2024-03-06T01:52:49;51.08;;;27.98;;
59312;SDS011;45084;51.486;7.366;2024-03-06T01:55:17;46.15;;;26.73;;
59312;SDS011;45084;51.486;7.366;2024-03-06T01:57:45;51.50;;;28.15;;
59312;SDS011;45084;51.486;7.366;2024-03-06T02:00:10;55.60;;;27.42;;
59312;SDS011;45084;51.486;7.366;2024-03-06T02:02:42;48.20;;;26.63;;
59312;SDS011;45084;51.486;7.366;2024-03-06T02:05:08;45.67;;;25.42;;
59312;SDS011;45084;51.486;7.366;2024-03-06T02:07:38;47.40;;;25.38;;
59312;SDS011;45084;51.486;7.366;2024-03-06T02:10:08;43.35;;;24.52;;
59312;SDS011;45084;51.486;7.366;2024-03-06T02:12:38;50.22;;;25.45;;
59312;SDS011;45084;51.486;7.366;2024-03-06T02:15:05;43.80;;;24.95;;
59312;SDS011;45084;51.486;7.366;2024-03-06T02:17:32;42.33;;;25.33;;
59312;SDS011;45084;51.486;7.366;2024-03-06T02:19:59;40.38;;;23.17;;
59312;SDS011;45084;51.486;7.366;2024-03-06T02:22:28;46.45;;;25.15;;
59312;SDS011;45084;51.486;7.366;2024-03-06T02:24:53;43.50;;;24.70;;
59312;SDS011;45084;51.486;7.366;2024-03-06T02:27:22;48.55;;;26.10;;
59312;SDS011;45084;51.486;7.366;2024-03-06T02:29:49;52.55;;;24.58;;
59312;SDS011;45084;51.486;7.366;2024-03-06T02:32:19;45.90;;;23.92;;
59312;SDS011;45084;51.486;7.366;2024-03-06T02:34:46;52.72;;;26.17;;
59312;SDS011;45084;51.486;7.366;2024-03-06T02:37:13;45.15;;;25.98;;
59312;SDS011;45084;51.486;7.366;2024-03-06T02:39:39;40.63;;;22.73;;
59312;SDS011;45084;51.486;7.366;2024-03-06T02:42:08;41.58;;;22.98;;
59312;SDS011;45084;51.486;7.366;2024-03-06T02:44:36;44.58;;;24.58;;
59312;SDS011;45084;51.486;7.366;2024-03-06T02:47:03;43.10;;;23.83;;
59312;SDS011;45084;51.486;7.366;2024-03-06T02:49:30;38.88;;;22.58;;
59312;SDS011;45084;51.486;7.366;2024-03-06T02:51:56;38.85;;;23.15;;
59312;SDS011;45084;51.486;7.366;2024-03-06T02:54:22;43.10;;;23.00;;
59312;SDS011;45084;51.486;7.366;2024-03-06T02:56:51;41.47;;;22.17;;
59312;SDS011;45084;51.486;7.366;2024-03-06T02:59:17;35.58;;;21.13;;
59312;SDS011;45084;51.486;7.366;2024-03-06T03:01:44;39.45;;;22.83;;
59312;SDS011;45084;51.486;7.366;2024-03-06T03:04:10;37.03;;;21.58;;
59312;SDS011;45084;51.486;7.366;2024-03-06T03:06:36;38.22;;;22.30;;
59312;SDS011;45084;51.486;7.366;2024-03-06T03:09:01;38.20;;;21.70;;
59312;SDS011;45084;51.486;7.366;2024-03-06T03:11:30;36.10;;;21.08;;
59312;SDS011;45084;51.486;7.366;2024-03-06T03:13:58;41.83;;;22.08;;
59312;SDS011;45084;51.486;7.366;2024-03-06T03:16:25;37.95;;;22.27;;
59312;SDS011;45084;51.486;7.366;2024-03-06T03:18:52;40.80;;;23.92;;
59312;SDS011;45084;51.486;7.366;2024-03-06T03:21:18;42.50;;;21.85;;
59312;SDS011;45084;51.486;7.366;2024-03-06T03:23:46;41.53;;;23.45;;
59312;SDS011;45084;51.486;7.366;2024-03-06T03:26:15;41.15;;;23.10;;
59312;SDS011;45084;51.486;7.366;2024-03-06T03:28:43;39.88;;;22.73;;
59312;SDS011;45084;51.486;7.366;2024-03-06T03:31:10;43.13;;;24.77;;
59312;SDS011;45084;51.486;7.366;2024-03-06T03:33:39;45.72;;;23.33;;
59312;SDS011;45084;51.486;7.366;2024-03-06T03:36:06;44.58;;;23.98;;
59312;SDS011;45084;51.486;7.366;2024-03-06T03:38:34;41.40;;;22.98;;
59312;SDS011;45084;51.486;7.366;2024-03-06T03:41:12;45.70;;;23.17;;
59312;SDS011;45084;51.486;7.366;2024-03-06T03:43:40;41.22;;;23.88;;
59312;SDS011;45084;51.486;7.366;2024-03-06T03:46:08;46.78;;;24.98;;
59312;SDS011;45084;51.486;7.366;2024-03-06T03:48:37;41.60;;;23.27;;
59312;SDS011;45084;51.486;7.366;2024-03-06T03:51:04;42.50;;;22.63;;
59312;SDS011;45084;51.486;7.366;2024-03-06T03:53:35;43.47;;;21.98;;
59312;SDS011;45084;51.486;7.366;2024-03-06T03:56:02;41.42;;;21.75;;
59312;SDS011;45084;51.486;7.366;2024-03-06T03:58:33;47.08;;;25.27;;
59312;SDS011;45084;51.486;7.366;2024-03-06T04:01:00;49.08;;;24.40;;
59312;SDS011;45084;51.486;7.366;2024-03-06T04:03:27;50.80;;;25.77;;
59312;SDS011;45084;51.486;7.366;2024-03-06T04:05:53;47.30;;;24.88;;
59312;SDS011;45084;51.486;7.366;2024-03-06T04:08:21;44.17;;;24.42;;
59312;SDS011;45084;51.486;7.366;2024-03-06T04:10:48;50.80;;;25.13;;
59312;SDS011;45084;51.486;7.366;2024-03-06T04:13:15;60.88;;;28.35;;
59312;SDS011;45084;51.486;7.366;2024-03-06T04:15:44;53.92;;;27.30;;
59312;SDS011;45084;51.486;7.366;2024-03-06T04:18:11;54.17;;;26.40;;
59312;SDS011;45084;51.486;7.366;2024-03-06T04:20:40;55.20;;;27.05;;
59312;SDS011;45084;51.486;7.366;2024-03-06T04:23:05;58.78;;;28.65;;
59312;SDS011;45084;51.486;7.366;2024-03-06T04:25:34;61.17;;;27.35;;
59312;SDS011;45084;51.486;7.366;2024-03-06T04:28:01;63.50;;;27.55;;
59312;SDS011;45084;51.486;7.366;2024-03-06T04:30:28;61.25;;;26.77;;
59312;SDS011;45084;51.486;7.366;2024-03-06T04:32:57;65.90;;;29.20;;
59312;SDS011;45084;51.486;7.366;2024-03-06T04:35:26;56.30;;;27.10;;
59312;SDS011;45084;51.486;7.366;2024-03-06T04:37:54;57.70;;;28.63;;
59312;SDS011;45084;51.486;7.366;2024-03-06T04:40:21;54.67;;;25.65;;
59312;SDS011;45084;51.486;7.366;2024-03-06T04:42:50;53.03;;;27.35;;
59312;SDS011;45084;51.486;7.366;2024-03-06T04:45:17;48.45;;;24.98;;
59312;SDS011;45084;51.486;7.366;2024-03-06T04:47:46;51.75;;;25.38;;
59312;SDS011;45084;51.486;7.366;2024-03-06T04:50:12;53.63;;;25.17;;
59312;SDS011;45084;51.486;7.366;2024-03-06T04:52:42;49.88;;;25.20;;
59312;SDS011;45084;51.486;7.366;2024-03-06T04:55:12;43.85;;;23.20;;
59312;SDS011;45084;51.486;7.366;2024-03-06T04:57:42;43.55;;;23.67;;
59312;SDS011;45084;51.486;7.366;2024-03-06T05:00:10;49.35;;;25.77;;
59312;SDS011;45084;51.486;7.366;2024-03-06T05:02:36;42.05;;;24.88;;
59312;SDS011;45084;51.486;7.366;2024-03-06T05:05:04;40.78;;;23.02;;
59312;SDS011;45084;51.486;7.366;2024-03-06T05:07:30;44.78;;;24.38;;
59312;SDS011;45084;51.486;7.366;2024-03-06T05:09:58;42.92;;;24.20;;
59312;SDS011;45084;51.486;7.366;2024-03-06T05:12:24;40.38;;;23.77;;
59312;SDS011;45084;51.486;7.366;2024-03-06T05:14:51;43.55;;;22.33;;
59312;SDS011;45084;51.486;7.366;2024-03-06T05:17:19;41.35;;;23.00;;
59312;SDS011;45084;51.486;7.366;2024-03-06T05:19:48;43.97;;;21.65;;
59312;SDS011;45084;51.486;7.366;2024-03-06T05:22:17;40.17;;;22.58;;
59312;SDS011;45084;51.486;7.366;2024-03-06T05:24:46;41.00;;;23.00;;
59312;SDS011;45084;51.486;7.366;2024-03-06T05:27:13;40.80;;;22.50;;
59312;SDS011;45084;51.486;7.366;2024-03-06T05:29:43;43.95;;;23.60;;
59312;SDS011;45084;51.486;7.366;2024-03-06T05:32:10;44.80;;;23.80;;
59312;SDS011;45084;51.486;7.366;2024-03-06T05:34:37;48.15;;;23.95;;
59312;SDS011;45084;51.486;7.366;2024-03-06T05:37:08;46.63;;;23.45;;
59312;SDS011;45084;51.486;7.366;2024-03-06T05:39:35;43.70;;;23.65;;
59312;SDS011;45084;51.486;7.366;2024-03-06T05:42:08;43.25;;;23.02;;
59312;SDS011;45084;51.486;7.366;2024-03-06T05:44:37;42.35;;;22.80;;
59312;SDS011;45084;51.486;7.366;2024-03-06T05:47:02;46.13;;;21.98;;
59312;SDS011;45084;51.486;7.366;2024-03-06T05:49:29;45.72;;;23.63;;
59312;SDS011;45084;51.486;7.366;2024-03-06T05:51:55;43.33;;;22.27;;
59312;SDS011;45084;51.486;7.366;2024-03-06T05:54:24;52.22;;;25.00;;
59312;SDS011;45084;51.486;7.366;2024-03-06T05:56:51;47.35;;;25.02;;
59312;SDS011;45084;51.486;7.366;2024-03-06T05:59:18;45.67;;;22.80;;
59312;SDS011;45084;51.486;7.366;2024-03-06T06:01:44;40.28;;;21.33;;
59312;SDS011;45084;51.486;7.366;2024-03-06T06:04:16;43.35;;;22.42;;
59312;SDS011;45084;51.486;7.366;2024-03-06T06:06:47;48.75;;;25.70;;
59312;SDS011;45084;51.486;7.366;2024-03-06T06:09:14;43.17;;;23.50;;
59312;SDS011;45084;51.486;7.366;2024-03-06T06:11:42;42.75;;;23.08;;
59312;SDS011;45084;51.486;7.366;2024-03-06T06:14:09;43.38;;;23.02;;
59312;SDS011;45084;51.486;7.366;2024-03-06T06:16:39;46.92;;;24.60;;
59312;SDS011;45084;51.486;7.366;2024-03-06T06:19:07;43.03;;;23.42;;
59312;SDS011;45084;51.486;7.366;2024-03-06T06:21:36;40.05;;;22.08;;
59312;SDS011;45084;51.486;7.366;2024-03-06T06:24:03;40.30;;;21.60;;
59312;SDS011;45084;51.486;7.366;2024-03-06T06:26:30;42.25;;;23.73;;
59312;SDS011;45084;51.486;7.366;2024-03-06T06:28:59;47.53;;;25.13;;
59312;SDS011;45084;51.486;7.366;2024-03-06T06:31:25;49.53;;;23.92;;
59312;SDS011;45084;51.486;7.366;2024-03-06T06:33:53;48.55;;;24.48;;
59312;SDS011;45084;51.486;7.366;2024-03-06T06:36:19;44.30;;;22.42;;
59312;SDS011;45084;51.486;7.366;2024-03-06T06:38:48;53.88;;;24.77;;
59312;SDS011;45084;51.486;7.366;2024-03-06T06:41:16;39.85;;;21.92;;
59312;SDS011;45084;51.486;7.366;2024-03-06T06:43:45;51.67;;;24.77;;
59312;SDS011;45084;51.486;7.366;2024-03-06T06:46:14;43.05;;;22.58;;
59312;SDS011;45084;51.486;7.366;2024-03-06T06:48:44;44.92;;;23.20;;
59312;SDS011;45084;51.486;7.366;2024-03-06T06:51:11;42.97;;;23.30;;
59312;SDS011;45084;51.486;7.366;2024-03-06T06:53:39;46.83;;;22.67;;
59312;SDS011;45084;51.486;7.366;2024-03-06T06:56:08;42.83;;;20.65;;
59312;SDS011;45084;51.486;7.366;2024-03-06T06:58:36;38.53;;;20.55;;
59312;SDS011;45084;51.486;7.366;2024-03-06T07:01:03;41.40;;;21.65;;
59312;SDS011;45084;51.486;7.366;2024-03-06T07:03:32;42.60;;;22.20;;
59312;SDS011;45084;51.486;7.366;2024-03-06T07:05:58;44.10;;;23.63;;
59312;SDS011;45084;51.486;7.366;2024-03-06T07:08:24;42.95;;;23.92;;
59312;SDS011;45084;51.486;7.366;2024-03-06T07:10:53;51.08;;;25.98;;
59312;SDS011;45084;51.486;7.366;2024-03-06T07:13:19;42.53;;;22.75;;
59312;SDS011;45084;51.486;7.366;2024-03-06T07:15:46;42.58;;;22.48;;
59312;SDS011;45084;51.486;7.366;2024-03-06T07:18:12;43.53;;;23.50;;
59312;SDS011;45084;51.486;7.366;2024-03-06T07:20:39;41.65;;;22.33;;
59312;SDS011;45084;51.486;7.366;2024-03-06T07:23:06;41.00;;;22.02;;
59312;SDS011;45084;51.486;7.366;2024-03-06T07:25:32;46.85;;;25.00;;
59312;SDS011;45084;51.486;7.366;2024-03-06T07:28:00;46.85;;;24.00;;
59312;SDS011;45084;51.486;7.366;2024-03-06T07:30:27;46.70;;;23.67;;
59312;SDS011;45084;51.486;7.366;2024-03-06T07:32:54;38.70;;;22.73;;
59312;SDS011;45084;51.486;7.366;2024-03-06T07:35:23;36.65;;;21.13;;
59312;SDS011;45084;51.486;7.366;2024-03-06T07:37:49;41.83;;;24.45;;
59312;SDS011;45084;51.486;7.366;2024-03-06T07:40:16;41.80;;;23.58;;
59312;SDS011;45084;51.486;7.366;2024-03-06T07:42:43;43.47;;;23.05;;
59312;SDS011;45084;51.486;7.366;2024-03-06T07:45:12;44.30;;;24.10;;
59312;SDS011;45084;51.486;7.366;2024-03-06T07:47:41;41.70;;;23.58;;
59312;SDS011;45084;51.486;7.366;2024-03-06T07:50:07;34.97;;;22.40;;
59312;SDS011;45084;51.486;7.366;2024-03-06T07:52:33;40.47;;;22.70;;
59312;SDS011;45084;51.486;7.366;2024-03-06T07:55:00;39.17;;;22.40;;
59312;SDS011;45084;51.486;7.366;2024-03-06T07:57:27;39.60;;;22.52;;
59312;SDS011;45084;51.486;7.366;2024-03-06T07:59:53;33.47;;;21.52;;
59312;SDS011;45084;51.486;7.366;2024-03-06T08:02:19;43.70;;;25.02;;
59312;SDS011;45084;51.486;7.366;2024-03-06T08:04:47;44.65;;;24.30;;
59312;SDS011;45084;51.486;7.366;2024-03-06T08:07:16;35.55;;;22.50;;
59312;SDS011;45084;51.486;7.366;2024-03-06T08:09:42;37.80;;;22.40;;
59312;SDS011;45084;51.486;7.366;2024-03-06T08:12:11;38.72;;;23.95;;
59312;SDS011;45084;51.486;7.366;2024-03-06T08:14:38;36.03;;;21.13;;
59312;SDS011;45084;51.486;7.366;2024-03-06T08:17:03;42.28;;;24.20;;
59312;SDS011;45084;51.486;7.366;2024-03-06T08:19:30;38.38;;;22.15;;
59312;SDS011;45084;51.486;7.366;2024-03-06T08:21:57;42.92;;;24.77;;
59312;SDS011;45084;51.486;7.366;2024-03-06T08:24:22;37.13;;;21.85;;
59312;SDS011;45084;51.486;7.366;2024-03-06T08:26:49;38.78;;;24.42;;
59312;SDS011;45084;51.486;7.366;2024-03-06T08:29:14;38.67;;;23.55;;
59312;SDS011;45084;51.486;7.366;2024-03-06T08:31:41;37.10;;;24.13;;
59312;SDS011;45084;51.486;7.366;2024-03-06T08:34:07;37.55;;;23.25;;
59312;SDS011;45084;51.486;7.366;2024-03-06T08:36:33;37.65;;;24.45;;
59312;SDS011;45084;51.486;7.366;2024-03-06T08:38:59;40.85;;;24.02;;
59312;SDS011;45084;51.486;7.366;2024-03-06T08:41:25;38.40;;;24.20;;
59312;SDS011;45084;51.486;7.366;2024-03-06T08:43:50;36.25;;;23.50;;
59312;SDS011;45084;51.486;7.366;2024-03-06T08:46:16;35.35;;;22.33;;
59312;SDS011;45084;51.486;7.366;2024-03-06T08:48:44;38.10;;;23.23;;
59312;SDS011;45084;51.486;7.366;2024-03-06T08:51:11;38.15;;;23.50;;
59312;SDS011;45084;51.486;7.366;2024-03-06T08:53:38;35.88;;;23.20;;
59312;SDS011;45084;51.486;7.366;2024-03-06T08:56:04;33.40;;;22.15;;
59312;SDS011;45084;51.486;7.366;2024-03-06T08:58:32;38.13;;;24.17;;
59312;SDS011;45084;51.486;7.366;2024-03-06T09:00:57;38.83;;;22.35;;
59312;SDS011;45084;51.486;7.366;2024-03-06T09:03:24;38.72;;;23.20;;
59312;SDS011;45084;51.486;7.366;2024-03-06T09:05:49;37.40;;;23.52;;
59312;SDS011;45084;51.486;7.366;2024-03-06T09:08:15;31.40;;;21.17;;
59312;SDS011;45084;51.486;7.366;2024-03-06T09:10:40;31.75;;;21.42;;
59312;SDS011;45084;51.486;7.366;2024-03-06T09:13:06;32.80;;;21.48;;
59312;SDS011;45084;51.486;7.366;2024-03-06T09:15:32;36.22;;;23.85;;
59312;SDS011;45084;51.486;7.366;2024-03-06T09:17:58;36.10;;;23.02;;
59312;SDS011;45084;51.486;7.366;2024-03-06T09:20:23;33.97;;;22.55;;
59312;SDS011;45084;51.486;7.366;2024-03-06T09:22:49;34.75;;;23.35;;
59312;SDS011;45084;51.486;7.366;2024-03-06T09:25:15;37.30;;;23.48;;
59312;SDS011;45084;51.486;7.366;2024-03-06T09:27:41;41.03;;;23.10;;
59312;SDS011;45084;51.486;7.366;2024-03-06T09:30:07;36.30;;;23.17;;
59312;SDS011;45084;51.486;7.366;2024-03-06T09:32:34;35.78;;;22.63;;
59312;SDS011;45084;51.486;7.366;2024-03-06T09:34:59;32.55;;;21.67;;
59312;SDS011;45084;51.486;7.366;2024-03-06T09:37:25;30.70;;;20.98;;
59312;SDS011;45084;51.486;7.366;2024-03-06T09:39:51;30.67;;;21.40;;
59312;SDS011;45084;51.486;7.366;2024-03-06T09:42:16;34.55;;;21.95;;
59312;SDS011;45084;51.486;7.366;2024-03-06T09:44:43;35.97;;;22.60;;
59312;SDS011;45084;51.486;7.366;2024-03-06T09:47:11;33.25;;;22.27;;
59312;SDS011;45084;51.486;7.366;2024-03-06T09:49:39;34.47;;;22.30;;
59312;SDS011;45084;51.486;7.366;2024-03-06T09:52:05;32.25;;;21.58;;
59312;SDS011;45084;51.486;7.366;2024-03-06T09:54:31;35.25;;;23.50;;
59312;SDS011;45084;51.486;7.366;2024-03-06T09:56:57;34.80;;;21.90;;
59312;SDS011;45084;51.486;7.366;2024-03-06T09:59:24;33.40;;;21.50;;
59312;SDS011;45084;51.486;7.366;2024-03-06T10:01:50;33.63;;;21.65;;
59312;SDS011;45084;51.486;7.366;2024-03-06T10:04:22;32.75;;;22.35;;
59312;SDS011;45084;51.486;7.366;2024-03-06T10:06:57;30.92;;;21.50;;
59312;SDS011;45084;51.486;7.366;2024-03-06T10:09:23;30.45;;;22.40;;
59312;SDS011;45084;51.486;7.366;2024-03-06T10:11:50;33.65;;;22.05;;
59312;SDS011;45084;51.486;7.366;2024-03-06T10:14:18;30.42;;;21.88;;
59312;SDS011;45084;51.486;7.366;2024-03-06T10:16:56;32.22;;;21.40;;
59312;SDS011;45084;51.486;7.366;2024-03-06T10:19:26;34.35;;;21.90;;
59312;SDS011;45084;51.486;7.366;2024-03-06T10:21:55;31.30;;;21.98;;
59312;SDS011;45084;51.486;7.366;2024-03-06T10:24:26;29.38;;;20.52;;
59312;SDS011;45084;51.486;7.366;2024-03-06T10:26:54;30.00;;;22.02;;
59312;SDS011;45084;51.486;7.366;2024-03-06T10:29:22;33.05;;;22.48;;
59312;SDS011;45084;51.486;7.366;2024-03-06T10:34:19;31.52;;;23.13;;
59312;SDS011;45084;51.486;7.366;2024-03-06T10:36:48;30.85;;;22.85;;
59312;SDS011;45084;51.486;7.366;2024-03-06T10:39:21;27.20;;;20.48;;
59312;SDS011;45084;51.486;7.366;2024-03-06T10:41:54;24.52;;;18.67;;
59312;SDS011;45084;51.486;7.366;2024-03-06T10:44:21;25.15;;;17.73;;
59312;SDS011;45084;51.486;7.366;2024-03-06T10:46:50;24.20;;;17.23;;
59312;SDS011;45084;51.486;7.366;2024-03-06T10:49:28;20.75;;;14.35;;
59312;SDS011;45084;51.486;7.366;2024-03-06T10:51:58;20.77;;;14.30;;
59312;SDS011;45084;51.486;7.366;2024-03-06T10:54:32;23.45;;;15.15;;
59312;SDS011;45084;51.486;7.366;2024-03-06T10:57:04;21.48;;;15.57;;
59312;SDS011;45084;51.486;7.366;2024-03-06T10:59:30;23.25;;;14.40;;
59312;SDS011;45084;51.486;7.366;2024-03-06T11:01:56;19.48;;;14.43;;
59312;SDS011;45084;51.486;7.366;2024-03-06T11:04:29;26.85;;;15.38;;
59312;SDS011;45084;51.486;7.366;2024-03-06T11:06:59;21.58;;;15.02;;
59312;SDS011;45084;51.486;7.366;2024-03-06T11:09:32;19.38;;;14.50;;
59312;SDS011;45084;51.486;7.366;2024-03-06T11:12:00;18.77;;;14.57;;
59312;SDS011;45084;51.486;7.366;2024-03-06T11:14:25;20.50;;;14.55;;
59312;SDS011;45084;51.486;7.366;2024-03-06T11:17:01;18.70;;;14.38;;
59312;SDS011;45084;51.486;7.366;2024-03-06T11:28:23;23.48;;;14.93;;
59312;SDS011;45084;51.486;7.366;2024-03-06T11:31:00;18.30;;;14.25;;
59312;SDS011;45084;51.486;7.366;2024-03-06T11:36:22;27.15;;;18.60;;
59312;SDS011;45084;51.486;7.366;2024-03-06T11:39:07;26.83;;;18.00;;
59312;SDS011;45084;51.486;7.366;2024-03-06T11:44:09;25.88;;;18.25;;
59312;SDS011;45084;51.486;7.366;2024-03-06T11:46:43;26.00;;;17.73;;
59312;SDS011;45084;51.486;7.366;2024-03-06T11:51:46;27.60;;;16.85;;
59312;SDS011;45084;51.486;7.366;2024-03-06T11:54:12;27.25;;;16.15;;
59312;SDS011;45084;51.486;7.366;2024-03-06T11:56:44;22.13;;;15.43;;
59312;SDS011;45084;51.486;7.366;2024-03-06T11:59:13;24.67;;;15.30;;
59312;SDS011;45084;51.486;7.366;2024-03-06T12:01:40;23.95;;;16.13;;
59312;SDS011;45084;51.486;7.366;2024-03-06T12:04:09;24.02;;;15.60;;
59312;SDS011;45084;51.486;7.366;2024-03-06T12:06:35;23.95;;;15.75;;
59312;SDS011;45084;51.486;7.366;2024-03-06T12:09:02;21.50;;;14.75;;
59312;SDS011;45084;51.486;7.366;2024-03-06T12:11:28;18.85;;;14.30;;
59312;SDS011;45084;51.486;7.366;2024-03-06T12:13:56;19.45;;;13.57;;
59312;SDS011;45084;51.486;7.366;2024-03-06T12:16:22;17.95;;;13.02;;
59312;SDS011;45084;51.486;7.366;2024-03-06T12:18:54;18.42;;;12.55;;
59312;SDS011;45084;51.486;7.366;2024-03-06T12:21:22;18.42;;;13.43;;
59312;SDS011;45084;51.486;7.366;2024-03-06T12:24:05;22.27;;;15.43;;
59312;SDS011;45084;51.486;7.366;2024-03-06T12:26:34;23.52;;;15.30;;
59312;SDS011;45084;51.486;7.366;2024-03-06T12:29:08;20.73;;;15.32;;
59312;SDS011;45084;51.486;7.366;2024-03-06T12:31:35;24.98;;;17.02;;
59312;SDS011;45084;51.486;7.366;2024-03-06T12:34:02;24.13;;;17.75;;
59312;SDS011;45084;51.486;7.366;2024-03-06T12:36:28;20.98;;;14.93;;
59312;SDS011;45084;51.486;7.366;2024-03-06T12:39:01;21.10;;;15.60;;
59312;SDS011;45084;51.486;7.366;2024-03-06T12:41:28;27.23;;;18.50;;
59312;SDS011;45084;51.486;7.366;2024-03-06T12:43:55;28.27;;;20.75;;
59312;SDS011;45084;51.486;7.366;2024-03-06T12:46:22;25.67;;;21.60;;
59312;SDS011;45084;51.486;7.366;2024-03-06T12:48:49;30.73;;;22.30;;
59312;SDS011;45084;51.486;7.366;2024-03-06T12:51:15;27.30;;;21.65;;
59312;SDS011;45084;51.486;7.366;2024-03-06T12:53:41;29.67;;;20.48;;
59312;SDS011;45084;51.486;7.366;2024-03-06T12:56:07;27.45;;;20.75;;
59312;SDS011;45084;51.486;7.366;2024-03-06T12:58:36;25.92;;;20.65;;
59312;SDS011;45084;51.486;7.366;2024-03-06T13:01:01;24.50;;;18.85;;
59312;SDS011;45084;51.486;7.366;2024-03-06T13:03:28;25.13;;;18.20;;
59312;SDS011;45084;51.486;7.366;2024-03-06T13:05:54;21.75;;;16.63;;
59312;SDS011;45084;51.486;7.366;2024-03-06T13:08:20;25.65;;;18.10;;
59312;SDS011;45084;51.486;7.366;2024-03-06T13:10:46;22.92;;;18.88;;
59312;SDS011;45084;51.486;7.366;2024-03-06T13:13:15;25.13;;;18.13;;
59312;SDS011;45084;51.486;7.366;2024-03-06T13:15:40;27.30;;;19.98;;
59312;SDS011;45084;51.486;7.366;2024-03-06T13:18:07;32.25;;;23.27;;
59312;SDS011;45084;51.486;7.366;2024-03-06T13:20:34;32.08;;;24.98;;
59312;SDS011;45084;51.486;7.366;2024-03-06T13:22:59;28.02;;;22.23;;
59312;SDS011;45084;51.486;7.366;2024-03-06T13:25:26;34.78;;;25.33;;
59312;SDS011;45084;51.486;7.366;2024-03-06T13:27:52;36.78;;;26.88;;
59312;SDS011;45084;51.486;7.366;2024-03-06T13:30:19;35.92;;;28.80;;
59312;SDS011;45084;51.486;7.366;2024-03-06T13:32:45;38.60;;;29.63;;
59312;SDS011;45084;51.486;7.366;2024-03-06T13:35:12;39.45;;;29.23;;
59312;SDS011;45084;51.486;7.366;2024-03-06T13:37:41;39.15;;;30.10;;
59312;SDS011;45084;51.486;7.366;2024-03-06T13:40:08;39.80;;;28.55;;
59312;SDS011;45084;51.486;7.366;2024-03-06T13:42:36;38.58;;;30.17;;
59312;SDS011;45084;51.486;7.366;2024-03-06T13:45:05;37.83;;;28.58;;
59312;SDS011;45084;51.486;7.366;2024-03-06T13:47:36;38.72;;;29.20;;
59312;SDS011;45084;51.486;7.366;2024-03-06T13:50:03;40.53;;;28.95;;
59312;SDS011;45084;51.486;7.366;2024-03-06T13:52:31;41.47;;;30.63;;
59312;SDS011;45084;51.486;7.366;2024-03-06T13:54:58;42.88;;;31.10;;
59312;SDS011;45084;51.486;7.366;2024-03-06T13:57:25;41.45;;;28.95;;
59312;SDS011;45084;51.486;7.366;2024-03-06T13:59:52;42.17;;;31.50;;
59312;SDS011;45084;51.486;7.366;2024-03-06T14:02:17;41.13;;;29.35;;
59312;SDS011;45084;51.486;7.366;2024-03-06T14:04:43;38.58;;;30.02;;
59312;SDS011;45084;51.486;7.366;2024-03-06T14:07:09;38.75;;;30.10;;
59312;SDS011;45084;51.486;7.366;2024-03-06T14:09:34;40.45;;;30.02;;
59312;SDS011;45084;51.486;7.366;2024-03-06T14:12:00;36.63;;;27.50;;
59312;SDS011;45084;51.486;7.366;2024-03-06T14:14:26;36.83;;;27.95;;
59312;SDS011;45084;51.486;7.366;2024-03-06T14:16:51;31.95;;;25.90;;
59312;SDS011;45084;51.486;7.366;2024-03-06T14:19:17;34.08;;;27.58;;
59312;SDS011;45084;51.486;7.366;2024-03-06T14:21:42;29.45;;;23.15;;
59312;SDS011;45084;51.486;7.366;2024-03-06T14:24:08;30.80;;;23.83;;
59312;SDS011;45084;51.486;7.366;2024-03-06T14:26:34;29.25;;;25.27;;
59312;SDS011;45084;51.486;7.366;2024-03-06T14:29:00;29.75;;;24.65;;
59312;SDS011;45084;51.486;7.366;2024-03-06T14:31:31;31.63;;;24.05;;
59312;SDS011;45084;51.486;7.366;2024-03-06T14:33:56;30.33;;;24.05;;
59312;SDS011;45084;51.486;7.366;2024-03-06T14:36:23;29.63;;;23.30;;
59312;SDS011;45084;51.486;7.366;2024-03-06T14:38:53;31.88;;;24.67;;
59312;SDS011;45084;51.486;7.366;2024-03-06T14:41:20;27.90;;;21.65;;